Etusivu
METAR-TAF:

METAR-TAF

Lentoasemat :

Sétif, Algeria

Leveyspiiri: 36-11N, Pituuspiiri: 005-25E, korkeus merenpinnasta: 1038 m

Tämänhetkinen sää

Tämä raportti tehtiin 1 tunti ja 4 minuuttia sitten, kello 10.00 UTC
Tuuli 5 kn lännestä
Lämpötila 16°C
Kosteus 23%
Ilmanpaine 1021 hPa
Näkyvyys 10 km tai enemmän
ei pilviä alle 1500 m:ssä eikä cumulonimbus-pilviä

METAR: DAAS 291000Z 26005KT CAVOK 16/M05 Q1021

Aika: 12:04 (11:04 UTC)

Sääennuste

Tämä raportti tehtiin 6 tuntia ja 4 minuuttia sitten, kello 05.00 UTC
Ennuste voimassa 29. päivästä klo 06 UTC - 01. päivään klo 06 UTC
Tuuli 8 kn lännestä
Näkyvyys 10 km tai enemmän
ei pilviä alle 1500 m:ssä eikä cumulonimbus-pilviä
Tulossa
29. päivästä klo 08 UTC - 29. päivään klo 10 UTC
Tuuli 13 kn lännestä/lounaasta
Tulossa
29. päivästä klo 20 UTC - 29. päivään klo 22 UTC
Tuuli 8 kn kaakosta

TAF: DAAS 290500Z 2906/0106 28008KT CAVOK BECMG 2908/2910 25013KT BECMG 2920/2922 13008KT

Säähavainnot ja -ennusteet yli 4000 lentoasemalta (METAR- ja TAF-raportit).

Käytössä olevat sääasemat on merkitty karttaan keltaisilla ja punaisilla pisteillä.

Aseta hiiri pisteen päälle nähdäksesi sääaseman nimen.

Klikkaa sitten nähdäksesi säähavainnot ja -ennusteet.

Kartan vaihtaminen: klikkaa mustalla rastilla varustettuja vihreitä pisteitä, niin voit zoomata sisään; viivalla varustettua vihreää pistettä, niin voit zoomata ulos tai vihreitä nuolia, niin pääset viereisille kartoille.


METAR-TAF: